This is the latest recevied weather packets stored in our database for station/object KBVX. If no packets are shown the sender has not sent any weather packets the latest 1 day(s).
| Time | Temp. | Humidity | Pressure | Rain* | Wind** | Luminosity | Snow |
|---|---|---|---|---|---|---|---|
| 1778049212 | 10° C | 93% | 1011.2 hPa | 3.3 mm | - | - | - |
| 1778048606 | 10° C | 93% | 1011.2 hPa | 3.3 mm | - | - | - |
| 1778048005 | 10° C | 93% | 1011.2 hPa | 3.3 mm | - | - | - |
| 1778047410 | 10° C | 93% | 1011.2 hPa | 3.3 mm | - | - | - |
| 1778046807 | 10° C | 93% | 1011.5 hPa | - | - | - | - |
| 1778045604 | 10.56° C | 93% | 1010.8 hPa | - | - | - | - |
| 1778045006 | 10.56° C | 93% | 1010.8 hPa | - | - | - | - |
| 1778043808 | 10.56° C | 100% | 1010.2 hPa | - | - | - | - |
| 1778043205 | 11.67° C | 100% | 1010.2 hPa | - | - | - | - |
| 1778042007 | 11.67° C | 100% | 1010.2 hPa | - | - | - | - |
| 1778041407 | 11.67° C | 100% | 1010.2 hPa | - | - | - | - |
| 1778040809 | 11.67° C | 100% | 1010.2 hPa | - | - | - | - |
| 1778040327 | 11.67° C | 100% | 1010.2 hPa | - | - | - | - |
| 1778039604 | 13.89° C | 93% | 1009.1 hPa | - | - | - | - |
| 1778038410 | 13.89° C | 93% | 1009.1 hPa | - | - | - | - |
| 1778037809 | 13.89° C | 93% | 1009.1 hPa | - | - | - | - |
| 1778036604 | 13.89° C | 93% | 1009.1 hPa | - | - | - | - |
| 1778036005 | 13.89° C | 100% | 1008.8 hPa | - | - | - | - |
| 1778035405 | 15° C | 93% | 1008.1 hPa | - | - | - | - |
| 1778034804 | 15° C | 93% | 1008.1 hPa | - | - | - | - |
| 1778033606 | 16.67° C | 93% | 1007.5 hPa | - | - | - | - |
| 1778032407 | 18.89° C | 93% | 1007.1 hPa | - | - | - | - |
| 1778031806 | 20.56° C | 88% | 1006.4 hPa | - | - | - | - |
| 1778031206 | 20.56° C | 88% | 1006.4 hPa | - | - | - | - |
| 1778030605 | 20.56° C | 88% | 1006.4 hPa | - | - | - | - |
* Rain latest hour (hover to see other rain measurements)
** Current wind speed in m/s (hover to see current wind gust speed)